createdAt,value
2018-09-22T00:02:10.804Z,12.13
2018-09-22T00:04:40.064Z,10.97
2018-09-22T00:07:09.329Z,14.27
2018-09-22T00:09:39.134Z,15.47
2018-09-22T00:12:08.323Z,7.90
2018-09-22T00:14:37.405Z,9.17
2018-09-22T00:17:06.759Z,7.30
2018-09-22T00:19:35.916Z,13.17
2018-09-22T00:22:05.099Z,9.27
2018-09-22T00:24:34.350Z,9.07
2018-09-22T00:27:03.498Z,7.33
2018-09-22T00:29:32.586Z,14.83
2018-09-22T00:32:01.881Z,14.07
2018-09-22T00:34:31.051Z,9.17
2018-09-22T00:37:00.304Z,8.80
2018-09-22T00:39:29.376Z,8.23
2018-09-22T00:41:59.761Z,4.93
2018-09-22T00:44:28.917Z,11.40
2018-09-22T00:46:58.127Z,8.10
2018-09-22T00:49:27.192Z,10.30
2018-09-22T00:51:56.384Z,11.83
2018-09-22T00:54:25.413Z,9.10
2018-09-22T00:56:54.646Z,5.20
2018-09-22T00:59:23.706Z,10.93
2018-09-22T01:01:52.801Z,6.43
2018-09-22T01:04:21.872Z,9.10
2018-09-22T01:06:51.051Z,8.60
2018-09-22T01:09:20.194Z,8.43
2018-09-22T01:11:49.286Z,5.80
2018-09-22T01:14:18.409Z,5.53
2018-09-22T01:16:47.587Z,5.77
2018-09-22T01:19:16.644Z,11.03
2018-09-22T01:21:45.793Z,9.03
2018-09-22T01:24:14.862Z,8.37
2018-09-22T01:26:43.930Z,6.33
2018-09-22T01:29:16.201Z,6.03
2018-09-22T01:31:46.009Z,10.33
2018-09-22T01:34:15.137Z,5.40
2018-09-22T01:36:44.180Z,7.20
2018-09-22T01:39:13.385Z,4.43
2018-09-22T01:41:42.835Z,3.47
2018-09-22T01:44:11.936Z,7.13
2018-09-22T01:46:41.029Z,9.80
2018-09-22T01:49:10.252Z,5.43
2018-09-22T01:51:39.269Z,7.17
2018-09-22T01:54:08.350Z,10.33
2018-09-22T01:56:37.551Z,7.20
2018-09-22T01:59:06.674Z,7.03
2018-09-22T02:01:35.745Z,5.20
2018-09-22T02:04:04.846Z,12.10
2018-09-22T02:06:34.065Z,9.60
2018-09-22T02:09:03.254Z,5.27
2018-09-22T02:11:32.341Z,10.47
2018-09-22T02:14:01.426Z,9.80
2018-09-22T02:16:30.550Z,6.60
2018-09-22T02:18:59.590Z,7.60
2018-09-22T02:21:28.677Z,8.47
2018-09-22T02:23:57.707Z,8.43
2018-09-22T02:26:26.835Z,9.87
2018-09-22T02:28:55.858Z,13.60
2018-09-22T02:31:25.021Z,8.83
2018-09-22T02:33:54.179Z,6.87
2018-09-22T02:36:23.503Z,6.07
2018-09-22T02:38:54.495Z,8.87
2018-09-22T02:41:23.621Z,5.30
2018-09-22T02:43:52.744Z,8.63
2018-09-22T02:46:21.844Z,9.63
2018-09-22T02:48:51.656Z,7.97
2018-09-22T02:51:20.823Z,7.57
2018-09-22T02:53:50.029Z,8.63
2018-09-22T02:56:19.116Z,5.20
2018-09-22T02:58:48.272Z,7.77
2018-09-22T03:01:17.442Z,6.10
2018-09-22T03:03:46.516Z,10.30
2018-09-22T03:06:15.538Z,7.30
2018-09-22T03:08:44.621Z,8.47
2018-09-22T03:11:13.815Z,8.03
2018-09-22T03:13:43.001Z,7.13
2018-09-22T03:16:12.060Z,7.80
2018-09-22T03:18:41.259Z,8.23
2018-09-22T03:21:10.442Z,8.80
2018-09-22T03:23:39.608Z,5.60
2018-09-22T03:26:08.767Z,5.33
2018-09-22T03:28:38.151Z,8.50
2018-09-22T03:31:07.270Z,6.50
2018-09-22T03:33:36.504Z,6.97
2018-09-22T03:36:12.158Z,4.17
2018-09-22T03:38:41.302Z,8.43
2018-09-22T03:41:10.449Z,5.70
2018-09-22T03:43:39.497Z,7.73
2018-09-22T03:46:08.576Z,5.50
2018-09-22T03:48:38.679Z,9.63
2018-09-22T03:51:07.794Z,5.50
2018-09-22T03:53:37.303Z,6.13
2018-09-22T03:56:07.173Z,5.23
2018-09-22T03:58:37.360Z,9.33
2018-09-22T04:01:06.625Z,6.90
2018-09-22T04:03:35.719Z,6.63
2018-09-22T04:06:04.849Z,6.47
2018-09-22T04:08:33.997Z,6.13
2018-09-22T04:11:03.174Z,6.37
2018-09-22T04:13:32.211Z,8.03
2018-09-22T04:16:01.310Z,9.10
2018-09-22T04:18:30.703Z,4.77
2018-09-22T04:20:59.750Z,4.87
2018-09-22T04:23:28.904Z,13.67
2018-09-22T04:25:57.978Z,7.97
2018-09-22T04:28:26.973Z,8.33
2018-09-22T04:30:56.174Z,7.10
2018-09-22T04:33:25.311Z,3.73
2018-09-22T04:35:54.443Z,7.23
2018-09-22T04:38:23.645Z,6.37
2018-09-22T04:40:52.915Z,6.73
2018-09-22T04:43:22.139Z,4.97
2018-09-22T04:45:51.985Z,3.97
2018-09-22T04:48:21.076Z,7.83
2018-09-22T04:50:51.637Z,14.03
2018-09-22T04:53:20.858Z,8.73
2018-09-22T04:55:51.709Z,9.73
2018-09-22T04:58:20.783Z,12.03
2018-09-22T05:00:50.150Z,5.50
2018-09-22T05:03:19.276Z,7.30
2018-09-22T05:05:48.413Z,4.13
2018-09-22T05:08:17.495Z,5.57
2018-09-22T05:10:46.662Z,8.70
2018-09-22T05:13:15.840Z,7.50
2018-09-22T05:15:44.966Z,6.70
2018-09-22T05:18:14.190Z,5.07
2018-09-22T05:20:43.301Z,5.63
2018-09-22T05:23:12.460Z,5.53
2018-09-22T05:25:41.485Z,4.20
2018-09-22T05:28:10.553Z,5.87
2018-09-22T05:30:39.655Z,9.53
2018-09-22T05:33:10.519Z,0.80
2018-09-22T05:35:39.999Z,3.37
2018-09-22T05:38:09.058Z,4.50
2018-09-22T05:40:38.380Z,3.60
2018-09-22T05:43:07.728Z,4.73
2018-09-22T05:45:36.922Z,3.43
2018-09-22T05:48:06.060Z,5.30
2018-09-22T05:50:35.157Z,4.67
2018-09-22T05:53:04.381Z,6.33
2018-09-22T05:55:33.480Z,4.93
2018-09-22T05:58:02.583Z,3.27
2018-09-22T06:00:36.225Z,4.20
2018-09-22T06:03:06.756Z,3.00
2018-09-22T06:05:35.883Z,6.87
2018-09-22T06:08:04.947Z,6.50
2018-09-22T06:10:34.073Z,3.20
2018-09-22T06:13:03.411Z,4.20
2018-09-22T06:15:32.623Z,10.40
2018-09-22T06:18:01.899Z,7.80
2018-09-22T06:20:31.113Z,3.53
2018-09-22T06:23:01.038Z,6.30
2018-09-22T06:25:30.130Z,3.60
2018-09-22T06:28:00.145Z,2.53
2018-09-22T06:30:29.243Z,2.60
2018-09-22T06:32:58.421Z,1.77
2018-09-22T06:35:27.567Z,4.37
2018-09-22T06:37:56.625Z,2.97
2018-09-22T06:40:25.695Z,7.63
2018-09-22T06:42:54.739Z,4.40
2018-09-22T06:45:23.811Z,6.17
2018-09-22T06:47:53.018Z,2.83
2018-09-22T06:50:22.417Z,2.57
2018-09-22T06:52:51.722Z,3.73
2018-09-22T06:55:21.048Z,4.27
2018-09-22T06:57:50.321Z,2.67
2018-09-22T07:00:19.482Z,1.23
2018-09-22T07:02:48.801Z,4.67
2018-09-22T07:05:18.228Z,4.23
2018-09-22T07:07:47.321Z,4.13
2018-09-22T07:10:16.931Z,1.20
2018-09-22T07:12:46.079Z,4.23
2018-09-22T07:15:15.797Z,3.17
2018-09-22T07:17:46.841Z,4.80
2018-09-22T07:20:16.369Z,1.13
2018-09-22T07:22:50.488Z,3.07
2018-09-22T07:25:19.621Z,5.20
2018-09-22T07:27:48.879Z,6.80
2018-09-22T07:30:17.976Z,3.83
2018-09-22T07:32:47.690Z,2.23
2018-09-22T07:35:16.856Z,19.00
2018-09-22T07:37:46.324Z,2.50
2018-09-22T07:40:15.352Z,2.10
2018-09-22T07:42:45.967Z,1.67
2018-09-22T07:45:15.374Z,4.00
2018-09-22T07:47:45.057Z,4.00
2018-09-22T07:50:14.185Z,9.83
2018-09-22T07:52:43.413Z,4.53
2018-09-22T07:55:12.513Z,5.80
2018-09-22T07:57:41.554Z,2.70
2018-09-22T08:00:11.308Z,4.03
2018-09-22T08:02:40.424Z,3.03
2018-09-22T08:05:09.510Z,4.67
2018-09-22T08:07:39.297Z,3.27
2018-09-22T08:10:08.471Z,8.83
2018-09-22T08:12:38.495Z,3.37
2018-09-22T08:15:07.790Z,3.27
2018-09-22T08:17:36.835Z,4.43
2018-09-22T08:20:06.127Z,5.33
2018-09-22T08:22:35.205Z,5.10
2018-09-22T08:25:04.281Z,5.07
2018-09-22T08:27:33.448Z,2.67
2018-09-22T08:30:02.492Z,2.43
2018-09-22T08:32:31.568Z,8.30
2018-09-22T08:35:00.770Z,1.57
2018-09-22T08:37:30.055Z,4.93
2018-09-22T08:40:00.351Z,2.37
2018-09-22T08:42:30.932Z,2.40
2018-09-22T08:45:00.464Z,2.07
2018-09-22T08:47:29.684Z,2.20
2018-09-22T08:49:58.941Z,2.30
2018-09-22T08:52:28.012Z,6.83
2018-09-22T08:54:57.618Z,4.43
2018-09-22T08:57:26.784Z,1.57
2018-09-22T08:59:56.002Z,3.53
2018-09-22T09:02:25.288Z,3.07
2018-09-22T09:04:54.357Z,5.10
2018-09-22T09:07:23.542Z,2.80
2018-09-22T09:09:52.591Z,4.60
2018-09-22T09:12:21.889Z,4.77
2018-09-22T09:14:51.368Z,4.03
2018-09-22T09:17:20.439Z,5.03
2018-09-22T09:19:50.269Z,1.97
2018-09-22T09:22:20.147Z,0.77
2018-09-22T09:24:49.924Z,5.60
2018-09-22T09:27:19.450Z,3.87
2018-09-22T09:29:50.075Z,4.00
2018-09-22T09:32:20.467Z,3.30
2018-09-22T09:34:49.933Z,0.80
2018-09-22T09:37:19.209Z,2.63
2018-09-22T09:39:48.358Z,1.27
2018-09-22T09:42:17.549Z,1.33
2018-09-22T09:44:46.617Z,1.53
2018-09-22T09:47:15.744Z,2.17
2018-09-22T09:49:44.870Z,2.80
2018-09-22T09:52:14.099Z,3.67
2018-09-22T09:54:43.248Z,1.80
2018-09-22T09:57:12.435Z,3.60
2018-09-22T09:59:41.519Z,1.40
2018-09-22T10:02:10.589Z,1.60
2018-09-22T10:04:39.627Z,2.87
2018-09-22T10:07:08.792Z,2.00
2018-09-22T10:09:38.103Z,4.30
2018-09-22T10:12:07.177Z,1.33
2018-09-22T10:14:37.503Z,2.20
2018-09-22T10:17:07.059Z,3.07
2018-09-22T10:19:36.219Z,4.57
2018-09-22T10:22:05.502Z,1.57
2018-09-22T10:24:36.330Z,0.97
2018-09-22T10:27:05.507Z,1.80
2018-09-22T10:29:34.889Z,3.70
2018-09-22T10:32:04.230Z,5.00
2018-09-22T10:34:33.519Z,2.13
2018-09-22T10:37:02.658Z,1.50
2018-09-22T10:39:31.695Z,1.63
2018-09-22T10:42:01.061Z,1.27
2018-09-22T10:44:30.905Z,1.80
2018-09-22T10:47:00.270Z,2.53
2018-09-22T10:49:29.466Z,1.00
2018-09-22T10:51:58.793Z,1.67
2018-09-22T10:54:28.252Z,0.90
2018-09-22T10:56:57.333Z,3.10
2018-09-22T10:59:28.354Z,2.63
2018-09-22T11:01:57.566Z,0.93
2018-09-22T11:04:27.035Z,4.27
2018-09-22T11:06:56.180Z,0.67
2018-09-22T11:09:25.232Z,4.70
2018-09-22T11:11:54.416Z,4.47
2018-09-22T11:14:24.015Z,3.40
2018-09-22T11:16:54.136Z,1.83
2018-09-22T11:19:23.140Z,1.43
2018-09-22T11:21:52.254Z,0.93
2018-09-22T11:24:21.592Z,1.67
2018-09-22T11:26:50.820Z,3.27
2018-09-22T11:29:20.212Z,0.70
2018-09-22T11:31:50.462Z,0.90
2018-09-22T11:34:19.738Z,0.97
2018-09-22T11:36:48.988Z,2.63
2018-09-22T11:39:18.313Z,1.73
2018-09-22T11:41:48.126Z,1.07
2018-09-22T11:44:17.248Z,2.93
2018-09-22T11:46:47.321Z,3.20
2018-09-22T11:49:16.369Z,0.90
2018-09-22T11:51:46.683Z,1.50
2018-09-22T11:54:15.755Z,0.87
2018-09-22T11:56:45.833Z,2.77
2018-09-22T11:59:14.956Z,0.90
2018-09-22T12:01:44.084Z,2.37
2018-09-22T12:04:13.208Z,0.53
2018-09-22T12:06:42.392Z,2.03
2018-09-22T12:09:12.461Z,3.30
2018-09-22T12:11:42.728Z,0.83
2018-09-22T12:14:12.531Z,0.10
2018-09-22T12:16:42.295Z,1.60
2018-09-22T12:19:11.456Z,1.53
2018-09-22T12:21:40.513Z,6.20
2018-09-22T12:24:13.969Z,2.30
2018-09-22T12:26:43.041Z,1.37
2018-09-22T12:29:12.207Z,0.30
2018-09-22T12:31:41.352Z,0.50
2018-09-22T12:34:11.042Z,0.73
2018-09-22T12:36:40.243Z,3.87
2018-09-22T12:39:12.803Z,2.10
2018-09-22T12:41:41.919Z,3.57
2018-09-22T12:44:11.194Z,4.30
2018-09-22T12:46:40.297Z,5.47
2018-09-22T12:49:09.532Z,1.43
2018-09-22T12:51:38.800Z,1.80
2018-09-22T12:54:07.917Z,32.33
2018-09-22T12:56:37.295Z,2.20
2018-09-22T12:59:06.517Z,0.77
2018-09-22T13:01:36.531Z,5.80
2018-09-22T13:04:05.658Z,5.63
2018-09-22T13:06:34.913Z,2.17
2018-09-22T13:09:05.542Z,2.23
2018-09-22T13:11:34.677Z,1.00
2018-09-22T13:14:03.897Z,0.83
2018-09-22T13:16:33.578Z,0.53
2018-09-22T13:19:02.677Z,0.20
2018-09-22T13:21:32.489Z,0.10
2018-09-22T13:24:05.800Z,0.03
2018-09-22T13:26:35.405Z,1.10
2018-09-22T13:29:04.590Z,0.10
2018-09-22T13:31:33.660Z,0.40
2018-09-22T13:34:02.784Z,0.10
2018-09-22T13:36:31.945Z,0.93
2018-09-22T13:39:01.860Z,0.30
2018-09-22T13:41:31.360Z,0.03
2018-09-22T13:44:02.454Z,0.13
2018-09-22T13:46:31.711Z,0.07
2018-09-22T13:49:01.173Z,1.10
2018-09-22T13:51:30.691Z,0.10
2018-09-22T13:53:59.888Z,0.10
2018-09-22T13:56:29.343Z,0.00
2018-09-22T13:58:58.665Z,0.00
2018-09-22T14:01:28.595Z,0.73
2018-09-22T14:03:58.109Z,0.00
2018-09-22T14:06:28.211Z,0.00
2018-09-22T14:08:57.252Z,2.10
2018-09-22T14:11:31.436Z,0.00
2018-09-22T14:14:00.553Z,0.10
2018-09-22T14:16:29.629Z,0.10
2018-09-22T14:18:58.919Z,0.00
2018-09-22T14:21:27.974Z,0.00
2018-09-22T14:23:57.040Z,0.20
2018-09-22T14:26:26.202Z,0.20
2018-09-22T14:28:55.283Z,0.10
2018-09-22T14:31:24.366Z,0.83
2018-09-22T14:33:53.989Z,1.33
2018-09-22T14:36:23.127Z,0.10
2018-09-22T14:38:52.520Z,0.27
2018-09-22T14:41:21.690Z,0.20
2018-09-22T14:43:50.969Z,0.00
2018-09-22T14:46:20.053Z,0.10
2018-09-22T14:48:49.232Z,0.20
2018-09-22T14:51:19.648Z,1.77
2018-09-22T14:53:48.945Z,0.33
2018-09-22T14:56:18.661Z,0.20
2018-09-22T14:58:47.998Z,1.10
2018-09-22T15:01:17.104Z,0.20
2018-09-22T15:03:46.251Z,7.00
2018-09-22T15:06:15.449Z,3.90
2018-09-22T15:08:44.659Z,2.30
2018-09-22T15:11:13.989Z,0.63
2018-09-22T15:13:43.054Z,2.37
2018-09-22T15:16:12.902Z,4.43
2018-09-22T15:18:42.520Z,1.40
2018-09-22T15:21:13.330Z,0.50
2018-09-22T15:23:42.476Z,1.70
2018-09-22T15:26:11.959Z,1.33
2018-09-22T15:28:41.226Z,0.57
2018-09-22T15:31:10.380Z,1.00
2018-09-22T15:33:39.576Z,1.97
2018-09-22T15:36:09.316Z,0.67
2018-09-22T15:38:38.689Z,0.90
2018-09-22T15:41:08.225Z,0.80
2018-09-22T15:43:37.770Z,1.00
2018-09-22T15:46:06.813Z,2.53
2018-09-22T15:48:35.844Z,0.83
2018-09-22T15:51:04.920Z,0.10
2018-09-22T15:53:34.170Z,1.03
2018-09-22T15:56:03.351Z,0.20
2018-09-22T15:58:32.426Z,0.07
2018-09-22T16:01:01.576Z,1.07
2018-09-22T16:03:34.996Z,0.13
2018-09-22T16:06:04.113Z,4.87
2018-09-22T16:08:33.270Z,1.30
2018-09-22T16:11:02.309Z,1.20
2018-09-22T16:13:31.548Z,1.10
2018-09-22T16:16:00.740Z,0.50
2018-09-22T16:18:29.866Z,0.73
2018-09-22T16:20:58.899Z,0.93
2018-09-22T16:23:28.067Z,0.57
2018-09-22T16:25:57.094Z,0.47
2018-09-22T16:28:26.423Z,0.20
2018-09-22T16:30:57.617Z,0.20
2018-09-22T16:33:29.935Z,0.60
2018-09-22T16:35:58.985Z,1.53
2018-09-22T16:38:28.019Z,1.53
2018-09-22T16:40:57.140Z,1.70
2018-09-22T16:43:26.202Z,1.83
2018-09-22T16:45:55.342Z,2.77
2018-09-22T16:48:24.479Z,0.40
2018-09-22T16:50:53.494Z,1.10
2018-09-22T16:53:22.566Z,0.10
2018-09-22T16:55:51.641Z,0.27
2018-09-22T16:58:20.661Z,0.83
2018-09-22T17:00:50.956Z,1.30
2018-09-22T17:03:24.204Z,0.80
2018-09-22T17:05:53.244Z,0.20
2018-09-22T17:08:22.283Z,0.13
2018-09-22T17:10:51.300Z,1.20
2018-09-22T17:13:20.327Z,1.13
2018-09-22T17:15:50.202Z,1.73
2018-09-22T17:18:19.220Z,1.93
2018-09-22T17:20:48.424Z,1.30
2018-09-22T17:23:17.557Z,0.40
2018-09-22T17:25:46.617Z,0.90
2018-09-22T17:28:15.723Z,1.37
2018-09-22T17:30:44.834Z,1.63
2018-09-22T17:33:13.899Z,1.83
2018-09-22T17:35:43.046Z,0.50
2018-09-22T17:38:12.677Z,1.10
2018-09-22T17:40:42.105Z,0.40
2018-09-22T17:43:11.242Z,0.90
2018-09-22T17:45:40.382Z,0.20
2018-09-22T17:48:09.551Z,0.30
2018-09-22T17:50:38.568Z,0.70
2018-09-22T17:53:07.684Z,1.13
2018-09-22T17:55:37.431Z,0.53
2018-09-22T17:58:06.885Z,0.70
2018-09-22T18:00:36.115Z,1.10
2018-09-22T18:03:05.146Z,0.30
2018-09-22T18:05:34.465Z,0.10
2018-09-22T18:08:03.512Z,0.20
2018-09-22T18:10:33.552Z,1.07
2018-09-22T18:13:02.560Z,0.83
2018-09-22T18:15:31.611Z,0.10
2018-09-22T18:18:00.692Z,0.00
2018-09-22T18:20:29.890Z,0.10
2018-09-22T18:22:59.061Z,0.23
2018-09-22T18:25:29.007Z,2.07
2018-09-22T18:27:58.102Z,2.00
2018-09-22T18:30:27.159Z,0.13
2018-09-22T18:32:56.367Z,0.10
2018-09-22T18:35:25.429Z,0.10
2018-09-22T18:37:54.543Z,1.20
2018-09-22T18:40:23.809Z,0.17
2018-09-22T18:42:53.384Z,0.50
2018-09-22T18:45:22.407Z,0.43
2018-09-22T18:47:51.567Z,0.30
2018-09-22T18:50:20.592Z,0.73
2018-09-22T18:52:49.740Z,0.60
2018-09-22T18:55:19.045Z,0.13
2018-09-22T18:57:48.229Z,0.30
2018-09-22T19:00:17.297Z,0.30
2018-09-22T19:02:46.531Z,0.10
2018-09-22T19:05:15.687Z,2.77
2018-09-22T19:07:44.676Z,0.10
2018-09-22T19:10:13.741Z,2.23
2018-09-22T19:12:42.909Z,1.10
2018-09-22T19:15:30.129Z,2.60
2018-09-22T19:18:11.387Z,0.20
2018-09-22T19:20:46.734Z,0.13
2018-09-22T19:23:20.293Z,1.70
2018-09-22T19:25:53.280Z,5.70
2018-09-22T19:28:27.095Z,1.23
2018-09-22T19:30:58.835Z,0.73
2018-09-22T19:33:36.675Z,0.33
2018-09-22T19:36:09.792Z,0.33
2018-09-22T19:38:43.854Z,0.57
2018-09-22T19:41:21.219Z,0.40
2018-09-22T19:43:54.669Z,0.30
2018-09-22T19:46:30.252Z,1.43
2018-09-22T19:49:06.377Z,0.20
2018-09-22T19:51:38.580Z,0.10
2018-09-22T19:54:08.789Z,0.50
2018-09-22T19:56:37.968Z,1.17
2018-09-22T19:59:07.591Z,0.33
2018-09-22T20:01:36.732Z,0.50
2018-09-22T20:04:05.907Z,0.20
2018-09-22T20:06:34.913Z,0.67
2018-09-22T20:09:05.047Z,0.67
2018-09-22T20:11:34.272Z,1.60
2018-09-22T20:14:03.295Z,0.10
2018-09-22T20:16:32.346Z,0.70
2018-09-22T20:19:01.501Z,0.10
2018-09-22T20:21:30.588Z,0.40
2018-09-22T20:23:59.596Z,1.20
2018-09-22T20:26:28.644Z,1.03
2018-09-22T20:28:57.644Z,0.50
2018-09-22T20:31:26.687Z,0.90
2018-09-22T20:33:55.674Z,0.10
2018-09-22T20:36:24.892Z,0.10
2018-09-22T20:38:54.233Z,1.90
2018-09-22T20:41:23.341Z,0.10
2018-09-22T20:43:52.508Z,1.50
2018-09-22T20:46:21.727Z,0.60
2018-09-22T20:48:51.010Z,0.23
2018-09-22T20:51:20.146Z,0.43
2018-09-22T20:53:50.372Z,0.47
2018-09-22T20:56:19.478Z,0.60
2018-09-22T20:58:48.813Z,0.40
2018-09-22T21:01:17.895Z,0.10
2018-09-22T21:03:47.098Z,1.07
2018-09-22T21:06:16.171Z,1.93
2018-09-22T21:08:45.224Z,0.60
2018-09-22T21:11:14.492Z,0.50
2018-09-22T21:13:47.219Z,0.30
2018-09-22T21:16:17.037Z,0.10
2018-09-22T21:18:52.774Z,1.37
2018-09-22T21:21:22.708Z,1.80
2018-09-22T21:23:52.136Z,0.30
2018-09-22T21:26:21.204Z,0.23
2018-09-22T21:28:50.924Z,1.03
2018-09-22T21:31:20.142Z,0.47
2018-09-22T21:33:49.443Z,0.37
2018-09-22T21:36:18.512Z,0.00
2018-09-22T21:38:47.612Z,0.27
2018-09-22T21:41:16.697Z,0.10
2018-09-22T21:43:47.089Z,0.33
2018-09-22T21:46:17.244Z,0.00
2018-09-22T21:48:46.290Z,0.00
2018-09-22T21:51:15.481Z,0.20
2018-09-22T21:53:44.520Z,0.20
2018-09-22T21:56:13.528Z,0.87
2018-09-22T21:58:42.559Z,0.80
2018-09-22T22:01:16.789Z,0.57
2018-09-22T22:03:45.844Z,2.47
2018-09-22T22:06:14.922Z,0.40
2018-09-22T22:08:44.878Z,0.20
2018-09-22T22:11:14.572Z,0.70
2018-09-22T22:13:43.630Z,1.17
2018-09-22T22:16:12.775Z,0.30
2018-09-22T22:18:57.457Z,1.33
2018-09-22T22:21:30.624Z,0.10
2018-09-22T22:24:19.438Z,0.93
2018-09-22T22:26:49.971Z,0.00
2018-09-22T22:29:34.360Z,0.10
2018-09-22T22:32:19.791Z,4.77
2018-09-22T22:35:06.899Z,2.50
2018-09-22T22:37:36.189Z,5.90
2018-09-22T22:40:22.516Z,0.63
2018-09-22T22:43:08.918Z,0.40
2018-09-22T22:45:52.699Z,0.10
2018-09-22T22:48:36.334Z,0.77
2018-09-22T22:51:20.975Z,0.27
2018-09-22T22:54:07.455Z,0.80
2018-09-22T22:56:52.509Z,4.00
2018-09-22T22:59:37.491Z,0.50
2018-09-22T23:02:21.313Z,0.10
2018-09-22T23:05:08.223Z,0.40
2018-09-22T23:07:52.905Z,0.40
2018-09-22T23:10:21.977Z,1.03
2018-09-22T23:12:51.815Z,1.53
2018-09-22T23:15:21.228Z,0.10
2018-09-22T23:17:50.351Z,0.00
2018-09-22T23:20:20.236Z,0.10
2018-09-22T23:22:49.315Z,1.37
2018-09-22T23:25:19.293Z,0.10
2018-09-22T23:27:48.422Z,0.67
2018-09-22T23:30:17.463Z,1.23
2018-09-22T23:32:46.682Z,0.10
2018-09-22T23:35:15.870Z,0.10
2018-09-22T23:37:45.016Z,0.10
2018-09-22T23:40:14.049Z,0.63
2018-09-22T23:42:43.145Z,0.10
2018-09-22T23:45:12.253Z,0.53
2018-09-22T23:47:41.335Z,0.47
2018-09-22T23:50:10.478Z,0.20
2018-09-22T23:52:39.635Z,2.57
2018-09-22T23:55:08.667Z,0.20
2018-09-22T23:57:37.792Z,1.03
